Time;durP1;ratioP1;P1;durP2;ratioP2;P2;SDS_P1;SDS_P2;PMS_P1;PMS_P2;Temp;Humidity;BMP_temperature;BMP_pressure;BME280_temperature;BME280_humidity;BME280_pressure;Samples;Min_cycle;Max_cycle;Signal;HPM_P1;HPM_P2
2022/10/21 00:01:41;;;;;;;12.48;2.63;;;17.70;99.90;;;;;;5071461;28;20186;-90
2022/10/21 00:04:07;;;;;;;13.10;1.65;;;17.70;99.90;;;;;;5062387;28;20032;-90
2022/10/21 00:06:33;;;;;;;11.32;2.33;;;17.70;99.90;;;;;;5070003;28;20047;-90
2022/10/21 00:08:58;;;;;;;12.43;1.48;;;17.70;99.90;;;;;;5075666;28;20032;-90
2022/10/21 00:11:24;;;;;;;10.20;1.70;;;17.70;99.90;;;;;;5073535;28;20012;-90
2022/10/21 00:13:50;;;;;;;9.68;1.50;;;17.70;99.90;;;;;;5074600;28;20320;-91
2022/10/21 00:16:18;;;;;;;12.15;2.45;;;17.70;99.90;;;;;;5064117;28;20017;-91
2022/10/21 00:18:45;;;;;;;10.85;1.80;;;17.70;99.90;;;;;;5065633;28;20077;-92
2022/10/21 00:21:18;;;;;;;10.85;1.50;;;17.70;99.90;;;;;;5067270;28;20317;-90
2022/10/21 00:23:44;;;;;;;12.57;2.00;;;17.70;99.90;;;;;;5071989;28;20036;-89
2022/10/21 00:26:12;;;;;;;17.60;2.40;;;17.70;99.90;;;;;;5066064;28;20021;-90
2022/10/21 00:28:38;;;;;;;12.20;2.00;;;17.70;99.90;;;;;;5077336;28;20032;-93
2022/10/21 00:31:08;;;;;;;15.80;1.92;;;17.70;99.90;;;;;;5078530;28;20020;-91
2022/10/21 00:33:34;;;;;;;9.38;1.80;;;17.70;99.90;;;;;;5078540;28;20054;-91
2022/10/21 00:36:03;;;;;;;11.13;1.70;;;17.70;99.90;;;;;;5083391;28;20099;-91
2022/10/21 00:38:30;;;;;;;15.38;2.30;;;17.70;99.90;;;;;;5075975;28;20131;-91
2022/10/21 00:40:56;;;;;;;13.38;2.22;;;17.70;99.90;;;;;;5064674;28;20039;-92
2022/10/21 00:43:23;;;;;;;13.00;2.15;;;17.70;99.90;;;;;;5063078;28;20040;-91
2022/10/21 00:45:52;;;;;;;15.07;2.13;;;17.60;99.90;;;;;;5060113;28;20309;-94
2022/10/21 00:48:29;;;;;;;9.77;2.50;;;17.60;99.90;;;;;;5066751;28;20305;-93
2022/10/21 00:51:16;;;;;;;15.23;2.10;;;17.60;99.90;;;;;;5075294;28;20028;-91
2022/10/21 00:53:46;;;;;;;12.95;2.83;;;17.60;99.90;;;;;;5068920;28;20092;-91
2022/10/21 00:56:23;;;;;;;13.77;2.47;;;17.60;99.90;;;;;;5070524;28;20092;-90
2022/10/21 00:58:50;;;;;;;21.17;2.47;;;17.70;99.90;;;;;;5067520;28;20102;-91
2022/10/21 01:01:17;;;;;;;18.60;2.75;;;17.70;99.90;;;;;;5071099;28;20032;-92
2022/10/21 01:03:43;;;;;;;15.63;2.50;;;17.60;99.90;;;;;;5068737;28;20044;-92
2022/10/21 01:06:11;;;;;;;14.20;2.75;;;17.60;99.90;;;;;;5077384;28;20044;-93
2022/10/21 01:08:37;;;;;;;14.80;3.10;;;17.60;99.90;;;;;;5070986;28;20013;-91
2022/10/21 01:11:09;;;;;;;14.90;3.28;;;17.60;99.90;;;;;;5078175;28;20020;-91
2022/10/21 01:14:02;;;;;;;28.42;3.90;;;17.60;99.90;;;;;;5068486;28;20351;-91
2022/10/21 01:16:49;;;;;;;25.00;4.70;;;17.70;99.90;;;;;;5072137;28;20024;-91
2022/10/21 01:19:45;;;;;;;40.50;4.85;;;17.70;99.90;;;;;;5078778;28;20029;-91
2022/10/21 01:22:26;;;;;;;29.80;4.13;;;17.80;99.90;;;;;;5089742;28;20024;-91
2022/10/21 01:25:11;;;;;;;31.05;4.65;;;17.80;99.90;;;;;;5075071;28;20037;-92
2022/10/21 01:27:52;;;;;;;33.85;4.88;;;17.80;99.90;;;;;;5079541;28;20013;-92
2022/10/21 01:30:40;;;;;;;34.20;4.82;;;17.80;99.90;;;;;;5078969;28;20017;-91
2022/10/21 01:33:33;;;;;;;32.40;4.93;;;18.00;99.90;;;;;;5076677;28;20020;-92
2022/10/21 01:36:34;;;;;;;34.42;5.43;;;18.00;99.90;;;;;;5070443;28;20044;-92
2022/10/21 01:39:18;;;;;;;36.60;5.10;;;18.00;99.90;;;;;;5053428;28;20036;-91
2022/10/21 01:41:59;;;;;;;29.55;4.45;;;18.10;99.90;;;;;;5062767;28;20036;-91
2022/10/21 01:44:31;;;;;;;39.17;4.93;;;18.10;99.90;;;;;;5060918;28;20058;-94
2022/10/21 01:47:10;;;;;;;39.40;5.72;;;18.20;99.90;;;;;;5065631;28;20017;-94
2022/10/21 01:49:48;;;;;;;39.00;5.45;;;18.20;99.90;;;;;;5077059;28;20024;-94
2022/10/21 01:52:27;;;;;;;44.17;5.43;;;18.30;99.90;;;;;;5091158;28;20024;-94
2022/10/21 01:55:05;;;;;;;46.97;8.32;;;18.30;99.90;;;;;;5079931;28;20039;-93
2022/10/21 01:57:41;;;;;;;42.85;5.40;;;18.30;99.90;;;;;;5080066;28;20020;-92
2022/10/21 02:00:24;;;;;;;43.33;6.10;;;18.40;99.90;;;;;;5077794;28;20052;-94
2022/10/21 02:03:06;;;;;;;;;;;;;;;;;;;;;
2022/10/21 02:05:36;;;;;;;32.97;5.15;;;18.40;99.90;;;;;;5081696;28;20366;-94
2022/10/21 02:08:35;;;;;;;;;;;;;;;;;;;;;
2022/10/21 02:11:21;;;;;;;34.55;4.03;;;18.50;99.90;;;;;;5070663;28;20048;-93
2022/10/21 02:13:57;;;;;;;25.67;4.00;;;18.50;99.90;;;;;;5075251;28;20048;-94
2022/10/21 02:16:28;;;;;;;24.13;4.18;;;18.50;99.90;;;;;;5075019;28;20040;-93
2022/10/21 02:18:58;;;;;;;32.15;4.20;;;18.40;99.90;;;;;;5069508;28;20027;-94
2022/10/21 02:21:28;;;;;;;24.67;3.47;;;18.50;99.90;;;;;;5080921;28;20093;-94
2022/10/21 02:24:18;;;;;;;29.67;4.28;;;18.50;99.90;;;;;;5077916;28;20320;-92
2022/10/21 02:26:44;;;;;;;28.38;4.90;;;18.50;99.90;;;;;;5075199;28;20042;-94
2022/10/21 02:29:12;;;;;;;29.42;5.15;;;18.50;99.90;;;;;;5074568;28;20020;-92
2022/10/21 02:31:40;;;;;;;21.33;4.25;;;18.60;99.90;;;;;;5081838;28;20088;-92
2022/10/21 02:34:26;;;;;;;21.30;3.53;;;18.60;99.90;;;;;;5083300;28;20129;-93
2022/10/21 02:37:16;;;;;;;26.50;4.15;;;18.70;99.90;;;;;;5071483;28;20020;-93
2022/10/21 02:40:02;;;;;;;22.50;4.00;;;18.70;99.90;;;;;;5077311;28;20131;-93
2022/10/21 02:42:32;;;;;;;28.85;4.78;;;18.70;99.90;;;;;;5069655;28;20025;-92
2022/10/21 02:45:01;;;;;;;22.85;3.40;;;18.70;99.90;;;;;;5070615;28;20032;-93
2022/10/21 02:47:28;;;;;;;22.52;4.07;;;18.70;99.90;;;;;;5074972;28;20017;-94
2022/10/21 02:49:54;;;;;;;22.45;3.33;;;18.70;99.90;;;;;;5075735;28;20275;-93
2022/10/21 02:52:20;;;;;;;19.67;3.22;;;18.70;99.90;;;;;;5074038;28;20361;-93
2022/10/21 02:54:46;;;;;;;25.20;3.85;;;18.70;99.90;;;;;;5080307;28;20190;-94
2022/10/21 02:57:11;;;;;;;27.45;4.25;;;18.70;99.90;;;;;;5075749;28;20091;-94
2022/10/21 02:59:37;;;;;;;26.88;4.95;;;18.70;99.90;;;;;;5065728;28;20068;-94
2022/10/21 03:02:03;;;;;;;23.25;3.85;;;18.60;99.90;;;;;;5079430;28;20028;-93
2022/10/21 03:04:29;;;;;;;30.67;4.07;;;18.60;99.90;;;;;;5069502;28;20035;-94
2022/10/21 03:06:54;;;;;;;26.38;3.72;;;18.60;99.90;;;;;;5074493;28;20104;-94
2022/10/21 03:09:20;;;;;;;26.83;3.78;;;18.60;99.90;;;;;;5073537;28;20053;-94
2022/10/21 03:11:46;;;;;;;27.55;3.40;;;18.50;99.90;;;;;;5078866;28;20020;-93
2022/10/21 03:14:12;;;;;;;21.83;4.00;;;18.50;99.90;;;;;;5068416;28;20045;-93
2022/10/21 03:16:37;;;;;;;26.83;4.75;;;18.60;99.90;;;;;;5065858;28;20460;-93
2022/10/21 03:19:03;;;;;;;28.75;3.90;;;18.60;99.90;;;;;;5070008;28;20147;-94
2022/10/21 03:21:29;;;;;;;25.67;3.95;;;18.50;99.90;;;;;;5069764;28;20029;-92
2022/10/21 03:23:54;;;;;;;33.10;4.30;;;18.50;99.90;;;;;;5080950;28;20020;-92
2022/10/21 03:26:20;;;;;;;32.53;5.28;;;18.50;99.90;;;;;;5070322;28;20095;-94
2022/10/21 03:28:46;;;;;;;26.63;4.35;;;18.50;99.90;;;;;;5070945;28;20056;-92
2022/10/21 03:31:12;;;;;;;28.42;3.80;;;18.50;99.90;;;;;;5083613;28;20286;-93
2022/10/21 03:33:38;;;;;;;32.10;4.13;;;18.40;99.90;;;;;;5074737;28;20050;-93
2022/10/21 03:36:04;;;;;;;26.40;4.22;;;18.40;99.90;;;;;;5081268;28;20103;-94
2022/10/21 03:38:30;;;;;;;25.23;5.22;;;18.30;99.90;;;;;;5084148;28;20294;-93
2022/10/21 03:40:55;;;;;;;35.80;5.78;;;18.30;99.90;;;;;;5064312;28;20027;-93
2022/10/21 03:43:21;;;;;;;27.70;5.40;;;18.20;99.90;;;;;;5075814;28;20385;-93
2022/10/21 03:45:47;;;;;;;41.35;5.65;;;18.20;99.90;;;;;;5068242;28;20117;-93
2022/10/21 03:48:13;;;;;;;30.17;4.05;;;18.20;99.90;;;;;;5068458;28;20116;-94
2022/10/21 03:50:38;;;;;;;38.17;4.75;;;18.20;99.90;;;;;;5072671;28;20021;-93
2022/10/21 03:53:04;;;;;;;35.92;4.97;;;18.20;99.90;;;;;;5069808;28;20194;-94
2022/10/21 03:55:30;;;;;;;43.20;6.55;;;18.20;99.90;;;;;;5069735;28;20082;-93
2022/10/21 03:57:56;;;;;;;32.90;5.63;;;18.10;99.90;;;;;;5073999;28;20070;-93
2022/10/21 04:00:22;;;;;;;26.23;4.38;;;18.00;99.90;;;;;;5074103;28;20025;-93
2022/10/21 04:02:48;;;;;;;31.35;5.70;;;18.00;99.90;;;;;;5081732;28;20013;-93
2022/10/21 04:05:14;;;;;;;26.88;4.55;;;18.00;99.90;;;;;;5077464;28;20100;-93
2022/10/21 04:07:40;;;;;;;31.45;4.45;;;18.00;99.90;;;;;;5069351;28;20055;-95
2022/10/21 04:10:07;;;;;;;39.53;5.00;;;18.00;99.90;;;;;;5074712;28;20044;-93
2022/10/21 04:12:33;;;;;;;32.58;4.10;;;17.90;99.90;;;;;;5084304;28;20219;-92
2022/10/21 04:14:58;;;;;;;36.17;5.28;;;18.00;99.90;;;;;;5073538;28;20241;-92
2022/10/21 04:17:25;;;;;;;34.92;4.47;;;17.90;99.90;;;;;;5074057;28;20058;-93
2022/10/21 04:19:50;;;;;;;41.38;5.03;;;17.90;99.90;;;;;;5064310;28;20232;-93
2022/10/21 04:22:16;;;;;;;30.08;4.38;;;17.90;99.90;;;;;;5068554;28;20012;-93
2022/10/21 04:24:42;;;;;;;37.78;5.65;;;17.80;99.90;;;;;;5064252;28;20036;-93
2022/10/21 04:27:07;;;;;;;32.50;3.67;;;17.80;99.90;;;;;;5072773;28;20112;-92
2022/10/21 04:29:33;;;;;;;31.73;4.35;;;17.80;99.90;;;;;;5070794;28;20372;-93
2022/10/21 04:31:59;;;;;;;32.65;4.13;;;17.80;99.90;;;;;;5078352;28;20019;-93
2022/10/21 04:34:24;;;;;;;38.47;4.65;;;17.80;99.90;;;;;;5080559;28;20052;-92
2022/10/21 04:36:50;;;;;;;28.15;3.85;;;17.70;99.90;;;;;;5070880;28;20308;-93
2022/10/21 04:39:16;;;;;;;30.08;3.67;;;17.70;99.90;;;;;;5064229;28;20021;-92
2022/10/21 04:41:43;;;;;;;32.47;4.68;;;17.70;99.90;;;;;;5070594;28;20016;-92
2022/10/21 04:44:08;;;;;;;49.10;5.63;;;17.70;99.90;;;;;;5063231;28;20120;-91
2022/10/21 04:46:34;;;;;;;38.42;4.85;;;17.70;99.90;;;;;;5072371;28;20047;-92
2022/10/21 04:49:00;;;;;;;40.70;5.05;;;17.70;99.90;;;;;;5078871;28;20051;-92
2022/10/21 04:51:25;;;;;;;34.78;4.82;;;17.60;99.90;;;;;;5073174;28;20250;-91
2022/10/21 04:53:51;;;;;;;25.92;4.38;;;17.60;99.90;;;;;;5079898;28;20251;-92
2022/10/21 04:56:17;;;;;;;30.63;4.45;;;17.60;99.90;;;;;;5071138;28;20028;-94
2022/10/21 04:58:43;;;;;;;23.75;4.20;;;17.60;99.90;;;;;;5075298;28;20013;-92
2022/10/21 05:01:08;;;;;;;29.50;4.22;;;17.60;99.90;;;;;;5069374;28;20230;-92
2022/10/21 05:03:34;;;;;;;30.70;4.80;;;17.50;99.90;;;;;;5069192;28;20029;-92
2022/10/21 05:06:00;;;;;;;33.85;3.88;;;17.50;99.90;;;;;;5067417;28;20031;-93
2022/10/21 05:08:25;;;;;;;37.80;4.07;;;17.50;99.90;;;;;;5057649;28;20028;-92
2022/10/21 05:11:01;;;;;;;28.73;4.03;;;17.50;99.90;;;;;;5055843;28;20021;-92
2022/10/21 05:13:28;;;;;;;25.48;3.78;;;17.50;99.90;;;;;;5067420;28;20017;-92
2022/10/21 05:16:00;;;;;;;34.70;4.10;;;17.50;99.90;;;;;;5072856;28;20025;-92
2022/10/21 05:18:26;;;;;;;36.13;5.00;;;17.50;99.90;;;;;;5071184;28;20013;-92
2022/10/21 05:20:54;;;;;;;36.05;5.35;;;17.60;99.90;;;;;;5053436;28;20025;-92
2022/10/21 05:23:20;;;;;;;34.80;4.80;;;17.70;99.90;;;;;;5059666;28;20028;-92
2022/10/21 05:25:47;;;;;;;30.30;3.90;;;17.70;99.90;;;;;;5052521;28;20111;-90
2022/10/21 05:28:13;;;;;;;41.55;4.80;;;17.80;99.90;;;;;;5062609;28;20392;-92
2022/10/21 05:30:39;;;;;;;41.60;4.93;;;17.80;99.90;;;;;;5076099;28;20037;-91
2022/10/21 05:33:05;;;;;;;38.85;4.78;;;17.80;99.90;;;;;;5078450;28;20352;-92
2022/10/21 05:35:31;;;;;;;24.65;3.28;;;17.90;99.90;;;;;;5066333;28;20033;-92
2022/10/21 05:37:56;;;;;;;32.67;5.88;;;17.80;99.90;;;;;;5083812;28;20366;-93
2022/10/21 05:40:22;;;;;;;30.73;4.13;;;17.90;99.90;;;;;;5074969;28;20028;-93
2022/10/21 05:42:48;;;;;;;34.05;4.68;;;17.80;99.90;;;;;;5075504;28;20023;-93
2022/10/21 05:45:13;;;;;;;29.13;3.60;;;17.80;99.90;;;;;;5077314;28;20088;-93
2022/10/21 05:47:40;;;;;;;36.03;5.13;;;17.80;99.90;;;;;;5075871;28;20029;-92
2022/10/21 05:50:07;;;;;;;27.38;3.45;;;17.80;99.90;;;;;;5067831;28;20029;-91
2022/10/21 05:52:33;;;;;;;34.97;4.78;;;17.80;99.90;;;;;;5082446;28;20025;-90
2022/10/21 05:54:59;;;;;;;33.70;4.28;;;17.80;99.90;;;;;;5085888;28;20020;-92
2022/10/21 05:57:24;;;;;;;27.17;3.63;;;17.80;99.90;;;;;;5074111;28;20073;-94
2022/10/21 05:59:50;;;;;;;27.60;3.58;;;17.80;99.90;;;;;;5064457;28;20017;-91
2022/10/21 06:02:16;;;;;;;26.33;3.33;;;17.90;99.90;;;;;;5072678;28;20052;-91
2022/10/21 06:04:42;;;;;;;20.75;3.03;;;17.80;99.90;;;;;;5083079;28;20024;-91
2022/10/21 06:07:07;;;;;;;31.13;4.03;;;17.90;99.90;;;;;;5069873;28;20084;-92
2022/10/21 06:09:33;;;;;;;25.63;3.85;;;17.80;99.90;;;;;;5074279;28;20392;-92
2022/10/21 06:11:59;;;;;;;18.75;3.00;;;17.90;99.90;;;;;;5068056;28;20021;-92
2022/10/21 06:14:25;;;;;;;26.02;4.35;;;17.90;99.90;;;;;;5065166;28;20051;-92
2022/10/21 06:16:51;;;;;;;25.20;3.50;;;18.00;99.90;;;;;;5074914;28;20194;-92
2022/10/21 06:19:17;;;;;;;29.25;4.93;;;18.00;99.90;;;;;;5069263;28;20114;-92
2022/10/21 06:21:45;;;;;;;22.60;4.72;;;18.00;99.90;;;;;;5069571;28;20013;-93
2022/10/21 06:24:11;;;;;;;27.23;3.50;;;18.00;99.90;;;;;;5081748;28;20366;-92
2022/10/21 06:26:37;;;;;;;18.67;3.00;;;18.00;99.90;;;;;;5072342;28;20079;-93
2022/10/21 06:29:03;;;;;;;28.35;5.22;;;18.00;99.90;;;;;;5064894;28;20031;-94
2022/10/21 06:31:28;;;;;;;24.20;3.42;;;18.00;99.90;;;;;;5077005;28;20059;-92
2022/10/21 06:33:54;;;;;;;20.73;3.13;;;18.00;99.90;;;;;;5064428;28;20527;-92
2022/10/21 06:36:20;;;;;;;28.05;3.50;;;18.00;99.90;;;;;;5077689;28;20020;-92
2022/10/21 06:38:46;;;;;;;27.17;2.85;;;18.00;99.90;;;;;;5060144;28;20035;-94
2022/10/21 06:41:14;;;;;;;29.35;3.45;;;18.00;99.90;;;;;;5088481;28;20013;-92
2022/10/21 06:43:41;;;;;;;25.50;3.92;;;18.00;99.90;;;;;;5093437;28;20100;-91
2022/10/21 06:46:09;;;;;;;25.90;4.15;;;18.00;99.90;;;;;;5073884;28;20378;-92
2022/10/21 06:48:35;;;;;;;29.35;4.20;;;17.90;99.90;;;;;;5070517;28;20017;-93
2022/10/21 06:51:07;;;;;;;36.30;4.60;;;17.90;99.90;;;;;;5070750;28;20023;-93
2022/10/21 06:53:34;;;;;;;30.60;3.80;;;17.90;99.90;;;;;;5070154;28;20044;-93
2022/10/21 06:56:18;;;;;;;23.23;3.72;;;17.80;99.90;;;;;;5075539;28;20395;-92
2022/10/21 06:58:46;;;;;;;28.63;3.47;;;17.80;99.90;;;;;;5071461;28;20025;-93
2022/10/21 07:01:15;;;;;;;19.27;3.20;;;17.90;99.90;;;;;;5068903;28;20035;-93
2022/10/21 07:03:41;;;;;;;25.92;3.38;;;17.90;99.90;;;;;;5079195;28;20027;-94
2022/10/21 07:07:06;;;;;;;;;;;;;;;;;;;;;
2022/10/21 07:09:32;;;;;;;28.70;3.63;;;18.00;99.90;;;;;;5055772;28;20270;-94
2022/10/21 07:12:00;;;;;;;28.90;4.10;;;18.10;99.90;;;;;;5087794;28;20056;-95
2022/10/21 07:14:25;;;;;;;23.92;3.67;;;18.10;99.90;;;;;;5069795;28;20642;-90
2022/10/21 07:16:52;;;;;;;22.65;3.50;;;18.20;99.90;;;;;;5074861;28;20024;-91
2022/10/21 07:19:18;;;;;;;23.35;3.20;;;18.10;99.90;;;;;;5068370;28;20013;-91
2022/10/21 07:21:45;;;;;;;23.05;3.40;;;18.20;99.90;;;;;;5068101;28;20036;-92
2022/10/21 07:24:11;;;;;;;26.65;3.95;;;18.20;99.90;;;;;;5074174;28;20129;-91
2022/10/21 07:26:37;;;;;;;20.75;3.42;;;18.20;99.90;;;;;;5065570;28;20032;-94
2022/10/21 07:29:03;;;;;;;20.90;3.25;;;18.20;99.90;;;;;;5065364;28;20040;-91
2022/10/21 07:31:34;;;;;;;33.35;5.13;;;18.30;99.90;;;;;;5067848;28;20397;-90
2022/10/21 07:34:02;;;;;;;22.27;3.97;;;18.30;99.90;;;;;;5070137;28;20063;-91
2022/10/21 07:36:30;;;;;;;23.98;3.72;;;18.30;99.90;;;;;;5060346;28;20085;-88
2022/10/21 07:39:01;;;;;;;15.70;3.30;;;18.40;99.90;;;;;;5061557;28;20017;-89
2022/10/21 07:41:34;;;;;;;26.52;3.60;;;18.40;99.90;;;;;;5062044;28;20111;-89
2022/10/21 07:43:59;;;;;;;22.88;4.05;;;18.40;99.90;;;;;;5064980;28;20063;-89
2022/10/21 07:46:25;;;;;;;23.27;3.47;;;18.40;99.90;;;;;;5057334;28;20077;-92
2022/10/21 07:48:51;;;;;;;18.73;4.20;;;18.40;99.90;;;;;;5058538;28;20063;-89
2022/10/21 07:51:19;;;;;;;16.20;3.20;;;18.40;99.90;;;;;;5054311;28;20029;-90
2022/10/21 07:53:47;;;;;;;25.58;4.32;;;18.40;99.90;;;;;;5063997;28;20020;-90
2022/10/21 07:56:15;;;;;;;36.13;3.85;;;18.50;99.90;;;;;;5077926;28;20112;-91
2022/10/21 07:58:42;;;;;;;24.92;5.20;;;18.50;99.90;;;;;;5053787;28;20047;-91
